createdAt,value
2018-12-10T00:01:57.160Z,4.10
2018-12-10T00:04:24.600Z,4.00
2018-12-10T00:06:52.029Z,3.80
2018-12-10T00:09:19.472Z,3.60
2018-12-10T00:11:46.905Z,3.40
2018-12-10T00:14:14.355Z,3.40
2018-12-10T00:16:49.915Z,3.40
2018-12-10T00:19:17.360Z,3.40
2018-12-10T00:21:44.794Z,3.50
2018-12-10T00:24:12.230Z,3.60
2018-12-10T00:26:39.670Z,3.70
2018-12-10T00:29:07.227Z,3.80
2018-12-10T00:31:34.803Z,3.80
2018-12-10T00:34:02.242Z,3.90
2018-12-10T00:36:30.527Z,3.90
2018-12-10T00:38:57.963Z,4.00
2018-12-10T00:41:25.401Z,4.00
2018-12-10T00:43:52.835Z,4.10
2018-12-10T00:46:20.266Z,4.10
2018-12-10T00:48:47.711Z,4.10
2018-12-10T00:51:15.153Z,4.10
2018-12-10T00:53:42.589Z,4.10
2018-12-10T00:56:10.037Z,4.10
2018-12-10T00:58:37.474Z,4.10
2018-12-10T01:01:04.970Z,4.10
2018-12-10T01:03:32.404Z,4.00
2018-12-10T01:05:59.847Z,4.00
2018-12-10T01:08:27.278Z,3.90
2018-12-10T01:10:54.716Z,3.90
2018-12-10T01:13:22.158Z,3.80
2018-12-10T01:15:49.583Z,3.70
2018-12-10T01:18:17.037Z,3.80
2018-12-10T01:20:44.470Z,3.70
2018-12-10T01:23:11.918Z,3.70
2018-12-10T01:25:39.443Z,3.70
2018-12-10T01:28:06.884Z,3.70
2018-12-10T01:30:34.314Z,3.70
2018-12-10T01:33:01.809Z,3.70
2018-12-10T01:35:29.247Z,3.70
2018-12-10T01:37:56.686Z,3.70
2018-12-10T01:40:24.123Z,3.80
2018-12-10T01:42:51.559Z,3.80
2018-12-10T01:45:19.002Z,3.80
2018-12-10T01:47:46.534Z,3.80
2018-12-10T01:50:13.983Z,3.90
2018-12-10T01:52:41.421Z,3.90
2018-12-10T01:55:08.924Z,3.90
2018-12-10T01:57:36.371Z,3.90
2018-12-10T02:00:05.308Z,3.90
2018-12-10T02:02:32.746Z,3.90
2018-12-10T02:05:00.176Z,3.90
2018-12-10T02:07:27.702Z,3.80
2018-12-10T02:09:55.138Z,3.80
2018-12-10T02:12:22.570Z,3.80
2018-12-10T02:14:50.015Z,3.70
2018-12-10T02:17:17.463Z,3.70
2018-12-10T02:19:44.896Z,3.50
2018-12-10T02:22:12.330Z,3.40
2018-12-10T02:24:39.771Z,3.30
2018-12-10T02:27:07.198Z,3.10
2018-12-10T02:29:35.203Z,3.00
2018-12-10T02:32:02.635Z,3.00
2018-12-10T02:34:30.077Z,2.90
2018-12-10T02:36:57.506Z,2.90
2018-12-10T02:39:24.951Z,2.90
2018-12-10T02:41:52.395Z,2.90
2018-12-10T02:44:19.831Z,2.90
2018-12-10T02:46:47.271Z,2.90
2018-12-10T02:49:14.704Z,2.90
2018-12-10T02:51:42.147Z,3.00
2018-12-10T02:54:09.580Z,3.00
2018-12-10T02:56:37.017Z,3.00
2018-12-10T02:59:04.461Z,3.00
2018-12-10T03:01:31.908Z,3.00
2018-12-10T03:03:59.346Z,3.10
2018-12-10T03:06:26.809Z,3.00
2018-12-10T03:08:54.343Z,3.10
2018-12-10T03:11:21.783Z,3.10
2018-12-10T03:13:49.217Z,3.10
2018-12-10T03:16:16.747Z,3.10
2018-12-10T03:18:44.179Z,3.10
2018-12-10T03:21:11.649Z,3.00
2018-12-10T03:23:39.088Z,2.90
2018-12-10T03:26:06.525Z,2.80
2018-12-10T03:28:34.039Z,2.60
2018-12-10T03:31:01.482Z,2.60
2018-12-10T03:33:28.920Z,2.50
2018-12-10T03:35:56.446Z,2.30
2018-12-10T03:38:23.887Z,2.20
2018-12-10T03:40:51.387Z,2.00
2018-12-10T03:43:18.826Z,1.90
2018-12-10T03:45:46.256Z,1.80
2018-12-10T03:48:13.695Z,1.70
2018-12-10T03:50:41.131Z,1.60
2018-12-10T03:53:08.580Z,1.50
2018-12-10T03:55:36.103Z,1.50
2018-12-10T03:58:03.539Z,1.40
2018-12-10T04:00:30.990Z,1.40
2018-12-10T04:02:58.506Z,1.40
2018-12-10T04:05:25.997Z,1.40
2018-12-10T04:07:53.535Z,1.40
2018-12-10T04:10:20.971Z,1.40
2018-12-10T04:12:48.410Z,1.30
2018-12-10T04:15:15.956Z,1.30
2018-12-10T04:17:43.395Z,1.30
2018-12-10T04:20:10.826Z,1.30
2018-12-10T04:22:38.322Z,1.30
2018-12-10T04:25:05.810Z,1.30
2018-12-10T04:27:33.310Z,1.30
2018-12-10T04:30:00.755Z,1.40
2018-12-10T04:32:28.335Z,1.40
2018-12-10T04:34:55.842Z,1.50
2018-12-10T04:37:23.273Z,1.50
2018-12-10T04:39:50.714Z,1.60
2018-12-10T04:42:18.156Z,1.60
2018-12-10T04:44:45.687Z,1.60
2018-12-10T04:47:13.120Z,1.70
2018-12-10T04:49:40.610Z,1.80
2018-12-10T04:52:08.039Z,1.80
2018-12-10T04:54:35.483Z,1.90
2018-12-10T04:57:02.967Z,1.90
2018-12-10T04:59:30.414Z,2.00
2018-12-10T05:01:57.852Z,2.00
2018-12-10T05:04:25.282Z,2.10
2018-12-10T05:06:52.719Z,2.10
2018-12-10T05:09:20.159Z,2.10
2018-12-10T05:11:47.586Z,2.20
2018-12-10T05:14:15.031Z,2.10
2018-12-10T05:16:42.466Z,2.10
2018-12-10T05:19:09.961Z,2.10
2018-12-10T05:21:37.405Z,2.10
2018-12-10T05:24:04.834Z,2.20
2018-12-10T05:26:32.291Z,2.20
2018-12-10T05:28:59.724Z,2.30
2018-12-10T05:31:27.158Z,2.50
2018-12-10T05:33:54.582Z,2.50
2018-12-10T05:36:22.025Z,2.60
2018-12-10T05:38:49.462Z,2.70
2018-12-10T05:41:16.947Z,2.70
2018-12-10T05:43:44.427Z,2.70
2018-12-10T05:46:11.859Z,2.70
2018-12-10T05:48:39.297Z,2.70
2018-12-10T05:51:06.787Z,2.70
2018-12-10T05:53:34.214Z,2.70
2018-12-10T05:56:01.652Z,2.70
2018-12-10T05:58:29.079Z,2.70
2018-12-10T06:00:56.518Z,2.60
2018-12-10T06:03:23.946Z,2.70
2018-12-10T06:05:51.383Z,2.60
2018-12-10T06:08:18.803Z,2.60
2018-12-10T06:10:46.243Z,2.60
2018-12-10T06:13:13.676Z,2.60
2018-12-10T06:15:41.115Z,2.60
2018-12-10T06:18:08.563Z,2.60
2018-12-10T06:20:36.003Z,2.60
2018-12-10T06:23:03.435Z,2.60
2018-12-10T06:25:30.871Z,2.60
2018-12-10T06:27:58.323Z,2.60
2018-12-10T06:30:25.749Z,2.70
2018-12-10T06:32:53.186Z,2.70
2018-12-10T06:35:20.623Z,2.70
2018-12-10T06:37:48.058Z,2.70
2018-12-10T06:40:15.486Z,2.70
2018-12-10T06:42:42.933Z,2.80
2018-12-10T06:45:10.357Z,2.80
2018-12-10T06:47:37.806Z,2.80
2018-12-10T06:50:06.658Z,2.80
2018-12-10T06:52:34.104Z,2.80
2018-12-10T06:55:01.667Z,2.80
2018-12-10T06:57:29.215Z,2.70
2018-12-10T06:59:56.650Z,2.70
2018-12-10T07:02:24.080Z,2.70
2018-12-10T07:04:51.517Z,2.70
2018-12-10T07:07:18.967Z,2.70
2018-12-10T07:09:46.486Z,2.70
2018-12-10T07:12:13.921Z,2.70
2018-12-10T07:14:41.356Z,2.70
2018-12-10T07:17:08.846Z,2.70
2018-12-10T07:19:36.284Z,2.80
2018-12-10T07:22:03.772Z,2.70
2018-12-10T07:24:31.211Z,2.70
2018-12-10T07:26:58.654Z,2.60
2018-12-10T07:29:26.087Z,2.60
2018-12-10T07:31:53.582Z,2.60
2018-12-10T07:34:21.020Z,2.60
2018-12-10T07:36:48.507Z,2.60
2018-12-10T07:39:16.038Z,2.60
2018-12-10T07:41:43.526Z,2.60
2018-12-10T07:44:11.024Z,2.60
2018-12-10T07:46:38.455Z,2.60
2018-12-10T07:49:05.890Z,2.70
2018-12-10T07:51:33.331Z,2.70
2018-12-10T07:54:00.765Z,2.70
2018-12-10T07:56:29.046Z,2.70
2018-12-10T07:58:56.899Z,2.80
2018-12-10T08:01:24.333Z,2.80
2018-12-10T08:03:51.768Z,2.80
2018-12-10T08:06:19.209Z,2.90
2018-12-10T08:08:46.640Z,2.90
2018-12-10T08:11:14.076Z,3.00
2018-12-10T08:13:41.510Z,3.00
2018-12-10T08:16:09.004Z,3.00
2018-12-10T08:18:36.431Z,2.90
2018-12-10T08:21:03.923Z,3.00
2018-12-10T08:23:31.515Z,2.90
2018-12-10T08:25:59.194Z,2.90
2018-12-10T08:28:26.688Z,3.00
2018-12-10T08:30:54.129Z,3.00
2018-12-10T08:33:21.563Z,2.90
2018-12-10T08:35:49.042Z,3.00
2018-12-10T08:38:16.482Z,2.90
2018-12-10T08:40:43.925Z,3.00
2018-12-10T08:43:11.395Z,3.00
2018-12-10T08:45:38.889Z,3.00
2018-12-10T08:48:06.322Z,3.00
2018-12-10T08:50:33.755Z,3.10
2018-12-10T08:53:01.183Z,3.10
2018-12-10T08:55:28.674Z,3.20
2018-12-10T08:57:56.116Z,3.20
2018-12-10T09:00:23.616Z,3.20
2018-12-10T09:02:51.056Z,3.30
2018-12-10T09:05:18.534Z,3.20
2018-12-10T09:07:46.023Z,3.20
2018-12-10T09:10:13.467Z,3.30
2018-12-10T09:12:47.034Z,3.30
2018-12-10T09:15:10.398Z,3.20
2018-12-10T09:17:37.835Z,3.30
2018-12-10T09:20:05.688Z,3.30
2018-12-10T09:22:33.166Z,3.20
2018-12-10T09:25:00.602Z,3.20
2018-12-10T09:27:28.026Z,3.20
2018-12-10T09:29:55.470Z,3.20
2018-12-10T09:32:22.915Z,3.10
2018-12-10T09:34:50.351Z,3.10
2018-12-10T09:37:17.786Z,3.00
2018-12-10T09:39:45.215Z,3.00
2018-12-10T09:42:12.654Z,2.90
2018-12-10T09:44:40.089Z,2.90
2018-12-10T09:47:07.522Z,2.90
2018-12-10T09:49:34.963Z,2.90
2018-12-10T09:52:02.395Z,3.00
2018-12-10T09:54:29.948Z,2.90
2018-12-10T09:56:57.383Z,3.00
2018-12-10T09:59:24.820Z,3.00
2018-12-10T10:01:52.460Z,3.00
2018-12-10T10:04:19.904Z,3.10
2018-12-10T10:06:47.338Z,3.10
2018-12-10T10:09:14.786Z,3.10
2018-12-10T10:11:42.217Z,3.10
2018-12-10T10:14:09.659Z,3.20
2018-12-10T10:16:37.099Z,3.30
2018-12-10T10:19:04.539Z,3.30
2018-12-10T10:21:31.972Z,3.40
2018-12-10T10:23:59.596Z,3.50
2018-12-10T10:26:27.129Z,3.60
2018-12-10T10:28:54.564Z,3.50
2018-12-10T10:31:22.003Z,3.40
2018-12-10T10:33:49.439Z,3.30
2018-12-10T10:36:16.879Z,3.30
2018-12-10T10:38:44.330Z,3.30
2018-12-10T10:41:11.771Z,3.30
2018-12-10T10:43:39.206Z,3.40
2018-12-10T10:46:06.690Z,3.40
2018-12-10T10:48:34.122Z,3.30
2018-12-10T10:51:01.551Z,3.30
2018-12-10T10:53:28.991Z,3.40
2018-12-10T10:55:56.427Z,3.40
2018-12-10T10:58:23.858Z,3.30
2018-12-10T11:00:57.058Z,3.40
2018-12-10T11:03:38.662Z,3.40
2018-12-10T11:06:06.711Z,3.50
2018-12-10T11:08:34.197Z,3.60
2018-12-10T11:11:01.694Z,3.60
2018-12-10T11:13:29.130Z,3.60
2018-12-10T11:15:56.627Z,3.60
2018-12-10T11:18:24.062Z,3.70
2018-12-10T11:20:51.554Z,3.80
2018-12-10T11:23:19.054Z,3.80
2018-12-10T11:25:46.480Z,3.90
2018-12-10T11:28:13.922Z,3.80
2018-12-10T11:30:41.350Z,3.90
2018-12-10T11:33:08.791Z,3.90
2018-12-10T11:35:36.217Z,3.90
2018-12-10T11:38:03.657Z,3.90
2018-12-10T11:40:31.142Z,3.90
2018-12-10T11:42:58.582Z,3.90
2018-12-10T11:45:26.260Z,3.90
2018-12-10T11:47:53.695Z,3.70
2018-12-10T11:50:21.226Z,3.60
2018-12-10T11:52:48.922Z,3.50
2018-12-10T11:55:16.364Z,3.40
2018-12-10T11:57:43.816Z,3.40
2018-12-10T12:00:11.374Z,3.40
2018-12-10T12:02:38.923Z,3.50
2018-12-10T12:05:06.414Z,3.60
2018-12-10T12:07:33.856Z,3.60
2018-12-10T12:10:01.346Z,3.60
2018-12-10T12:12:28.847Z,3.60
2018-12-10T12:14:56.287Z,3.60
2018-12-10T12:17:23.723Z,3.60
2018-12-10T12:19:51.369Z,3.70
2018-12-10T12:22:18.907Z,3.70
2018-12-10T12:24:46.347Z,3.70
2018-12-10T12:27:13.831Z,3.60
2018-12-10T12:29:41.269Z,3.50
2018-12-10T12:32:08.703Z,3.40
2018-12-10T12:34:36.150Z,3.30
2018-12-10T12:37:03.641Z,3.20
2018-12-10T12:39:31.086Z,3.20
2018-12-10T12:41:58.534Z,3.20
2018-12-10T12:44:25.963Z,3.20
2018-12-10T12:46:53.463Z,3.10
2018-12-10T12:49:21.091Z,3.20
2018-12-10T12:51:48.532Z,3.30
2018-12-10T12:54:15.969Z,3.30
2018-12-10T12:56:43.398Z,3.30
2018-12-10T12:59:10.842Z,3.30
2018-12-10T13:01:38.310Z,3.40
2018-12-10T13:04:05.823Z,3.40
2018-12-10T13:06:34.254Z,3.40
2018-12-10T13:09:01.688Z,3.50
2018-12-10T13:11:29.126Z,3.60
2018-12-10T13:13:56.554Z,3.60
2018-12-10T13:16:23.990Z,3.50
2018-12-10T13:18:51.428Z,3.60
2018-12-10T13:21:18.866Z,3.50
2018-12-10T13:23:46.311Z,3.50
2018-12-10T13:26:13.759Z,3.50
2018-12-10T13:28:41.207Z,3.50
2018-12-10T13:31:08.637Z,3.50
2018-12-10T13:33:36.078Z,3.60
2018-12-10T13:36:04.566Z,3.60
2018-12-10T13:38:36.708Z,3.60
2018-12-10T13:41:01.443Z,3.50
2018-12-10T13:43:28.882Z,3.50
2018-12-10T13:45:56.386Z,3.50
2018-12-10T13:48:23.923Z,3.50
2018-12-10T13:50:51.355Z,3.50
2018-12-10T13:53:18.790Z,3.50
2018-12-10T13:55:46.222Z,3.50
2018-12-10T13:58:13.663Z,3.40
2018-12-10T14:00:41.103Z,3.40
2018-12-10T14:03:08.532Z,3.40
2018-12-10T14:05:35.974Z,3.40
2018-12-10T14:08:03.532Z,3.40
2018-12-10T14:10:31.034Z,3.40
2018-12-10T14:12:58.469Z,3.30
2018-12-10T14:15:25.906Z,3.30
2018-12-10T14:17:53.339Z,3.20
2018-12-10T14:20:20.836Z,3.20
2018-12-10T14:22:48.327Z,3.10
2018-12-10T14:25:23.764Z,3.00
2018-12-10T14:27:51.608Z,3.00
2018-12-10T14:30:19.154Z,2.90
2018-12-10T14:32:46.647Z,2.90
2018-12-10T14:35:14.143Z,2.90
2018-12-10T14:37:41.692Z,2.90
2018-12-10T14:40:09.226Z,2.90
2018-12-10T14:42:49.054Z,2.90
2018-12-10T14:45:16.700Z,2.90
2018-12-10T14:47:44.295Z,2.80
2018-12-10T14:50:11.797Z,2.80
2018-12-10T14:52:39.372Z,2.90
2018-12-10T14:55:06.921Z,2.80
2018-12-10T14:57:34.360Z,2.80
2018-12-10T15:00:01.793Z,2.80
2018-12-10T15:02:29.280Z,2.80
2018-12-10T15:04:56.719Z,2.80
2018-12-10T15:07:24.157Z,2.80
2018-12-10T15:09:51.599Z,2.80
2018-12-10T15:12:19.084Z,2.80
2018-12-10T15:14:46.511Z,2.80
2018-12-10T15:17:13.948Z,2.80
2018-12-10T15:19:41.389Z,2.80
2018-12-10T15:22:08.823Z,2.80
2018-12-10T15:24:36.264Z,2.80
2018-12-10T15:27:03.767Z,2.80
2018-12-10T15:29:31.207Z,2.80
2018-12-10T15:31:58.647Z,2.80
2018-12-10T15:34:26.087Z,2.90
2018-12-10T15:36:53.522Z,2.80
2018-12-10T15:39:21.025Z,2.80
2018-12-10T15:41:48.507Z,2.80
2018-12-10T15:44:15.953Z,2.80
2018-12-10T15:46:43.386Z,2.80
2018-12-10T15:49:10.923Z,2.80
2018-12-10T15:51:38.422Z,2.80
2018-12-10T15:54:05.860Z,2.80
2018-12-10T15:56:33.295Z,2.80
2018-12-10T15:59:00.785Z,2.80
2018-12-10T16:01:28.214Z,2.80
2018-12-10T16:03:55.653Z,2.90
2018-12-10T16:06:23.165Z,2.90
2018-12-10T16:08:50.611Z,2.90
2018-12-10T16:11:18.051Z,2.90
2018-12-10T16:13:45.491Z,2.80
2018-12-10T16:16:12.927Z,2.80
2018-12-10T16:18:40.363Z,2.80
2018-12-10T16:21:07.860Z,2.80
2018-12-10T16:23:35.282Z,2.80
2018-12-10T16:26:02.716Z,2.80
2018-12-10T16:28:30.146Z,2.80
2018-12-10T16:30:57.852Z,2.80
2018-12-10T16:33:25.289Z,2.80
2018-12-10T16:35:52.887Z,2.80
2018-12-10T16:38:20.321Z,2.80
2018-12-10T16:40:47.748Z,2.80
2018-12-10T16:43:15.184Z,2.80
2018-12-10T16:45:42.614Z,2.80
2018-12-10T16:48:10.056Z,2.80
2018-12-10T16:50:37.552Z,2.80
2018-12-10T16:53:05.036Z,2.80
2018-12-10T16:55:32.474Z,2.80
2018-12-10T16:57:59.904Z,2.80
2018-12-10T17:00:27.338Z,2.90
2018-12-10T17:02:54.836Z,2.80
2018-12-10T17:05:24.223Z,2.80
2018-12-10T17:07:51.659Z,2.80
2018-12-10T17:10:19.095Z,2.90
2018-12-10T17:12:46.530Z,2.90
2018-12-10T17:15:13.964Z,2.90
2018-12-10T17:17:41.410Z,2.90
2018-12-10T17:20:08.855Z,2.90
2018-12-10T17:22:36.287Z,2.90
2018-12-10T17:25:05.039Z,2.90
2018-12-10T17:27:32.478Z,2.90
2018-12-10T17:29:59.914Z,2.90
2018-12-10T17:32:27.356Z,2.90
2018-12-10T17:34:54.786Z,2.90
2018-12-10T17:37:22.226Z,2.90
2018-12-10T17:39:49.659Z,2.90
2018-12-10T17:42:17.101Z,2.90
2018-12-10T17:44:44.535Z,3.00
2018-12-10T17:47:11.981Z,3.00
2018-12-10T17:49:39.719Z,2.90
2018-12-10T17:52:07.275Z,2.90
2018-12-10T17:54:34.716Z,2.90
2018-12-10T17:57:02.152Z,2.90
2018-12-10T17:59:29.651Z,2.90
2018-12-10T18:01:57.129Z,2.90
2018-12-10T18:04:24.644Z,2.90
2018-12-10T18:06:52.135Z,2.90
2018-12-10T18:09:19.631Z,2.90
2018-12-10T18:11:47.118Z,2.90
2018-12-10T18:14:14.631Z,2.90
2018-12-10T18:16:50.910Z,2.90
2018-12-10T18:19:18.394Z,2.90
2018-12-10T18:21:45.963Z,2.80
2018-12-10T18:24:13.721Z,2.80
2018-12-10T18:26:41.180Z,2.80
2018-12-10T18:29:08.683Z,2.80
2018-12-10T18:31:36.118Z,2.80
2018-12-10T18:34:03.662Z,2.80
2018-12-10T18:36:31.203Z,2.80
2018-12-10T18:38:58.637Z,2.80
2018-12-10T18:41:26.087Z,2.80
2018-12-10T18:43:53.512Z,2.80
2018-12-10T18:46:20.949Z,2.80
2018-12-10T18:48:48.384Z,2.80
2018-12-10T18:51:15.827Z,2.80
2018-12-10T18:53:43.348Z,2.70
2018-12-10T18:56:10.792Z,2.80
2018-12-10T18:58:38.224Z,2.80
2018-12-10T19:01:05.664Z,2.80
2018-12-10T19:03:33.159Z,2.80
2018-12-10T19:06:00.596Z,2.70
2018-12-10T19:08:28.038Z,2.70
2018-12-10T19:10:55.470Z,2.70
2018-12-10T19:13:22.912Z,2.70
2018-12-10T19:15:50.415Z,2.70
2018-12-10T19:18:17.855Z,2.70
2018-12-10T19:20:45.292Z,2.60
2018-12-10T19:23:12.722Z,2.60
2018-12-10T19:25:40.160Z,2.60
2018-12-10T19:28:07.585Z,2.60
2018-12-10T19:30:35.083Z,2.60
2018-12-10T19:33:02.515Z,2.60
2018-12-10T19:35:29.968Z,2.70
2018-12-10T19:37:57.403Z,2.60
2018-12-10T19:40:24.846Z,2.60
2018-12-10T19:42:52.288Z,2.60
2018-12-10T19:45:19.723Z,2.60
2018-12-10T19:47:47.302Z,2.60
2018-12-10T19:50:14.862Z,2.70
2018-12-10T19:52:42.301Z,2.70
2018-12-10T19:55:09.786Z,2.60
2018-12-10T19:57:37.392Z,2.60
2018-12-10T20:00:06.266Z,2.60
2018-12-10T20:02:33.966Z,2.60
2018-12-10T20:05:01.407Z,2.60
2018-12-10T20:07:28.845Z,2.60
2018-12-10T20:09:56.292Z,2.60
2018-12-10T20:12:23.720Z,2.60
2018-12-10T20:14:51.180Z,2.60
2018-12-10T20:17:18.683Z,2.60
2018-12-10T20:19:46.117Z,2.60
2018-12-10T20:22:13.550Z,2.60
2018-12-10T20:24:40.991Z,2.50
2018-12-10T20:33:18.588Z,2.20
2018-12-10T20:35:51.173Z,2.10
2018-12-10T20:38:20.243Z,1.90
2018-12-10T20:40:52.840Z,1.60
2018-12-10T20:43:28.546Z,1.40
2018-12-10T20:46:03.029Z,1.30
2018-12-10T20:48:31.243Z,1.20
2018-12-10T20:51:03.295Z,1.00
2018-12-10T20:53:37.652Z,0.80
2018-12-10T20:56:13.194Z,0.70
2018-12-10T20:58:49.145Z,0.60
2018-12-10T21:01:24.823Z,0.60
2018-12-10T21:04:00.993Z,0.60
2018-12-10T21:06:39.908Z,0.60
2018-12-10T21:09:12.554Z,0.60
2018-12-10T21:11:46.663Z,0.60
2018-12-10T21:14:18.720Z,0.50
2018-12-10T21:16:49.896Z,0.50
2018-12-10T21:19:18.556Z,0.50
2018-12-10T21:21:54.620Z,0.50
2018-12-10T21:24:28.125Z,0.50
2018-12-10T21:27:02.116Z,0.50
2018-12-10T21:29:34.989Z,0.50
2018-12-10T21:32:06.809Z,0.50
2018-12-10T21:34:39.722Z,0.50
2018-12-10T21:37:11.729Z,0.50
2018-12-10T21:39:46.165Z,0.50
2018-12-10T21:42:18.795Z,0.50
2018-12-10T21:44:51.325Z,0.50
2018-12-10T21:47:24.222Z,0.60
2018-12-10T21:49:52.555Z,0.60
2018-12-10T21:52:27.229Z,0.60
2018-12-10T21:55:01.664Z,0.60
2018-12-10T21:57:33.602Z,0.70
2018-12-10T22:00:06.148Z,0.70
2018-12-10T22:02:41.728Z,0.70
2018-12-10T22:05:16.995Z,0.70
2018-12-10T22:07:49.220Z,0.70
2018-12-10T22:10:23.646Z,0.80
2018-12-10T22:12:56.981Z,0.80
2018-12-10T22:15:30.945Z,0.80
2018-12-10T22:18:05.308Z,0.80
2018-12-10T22:20:39.759Z,0.80
2018-12-10T22:23:15.327Z,0.80
2018-12-10T22:25:48.620Z,0.90
2018-12-10T22:28:19.438Z,0.80
2018-12-10T22:30:52.645Z,0.90
2018-12-10T22:33:24.372Z,0.90
2018-12-10T22:35:56.046Z,0.80
2018-12-10T22:38:30.987Z,0.80
2018-12-10T22:41:04.841Z,0.80
2018-12-10T22:43:44.675Z,0.80
2018-12-10T22:46:18.870Z,0.80
2018-12-10T22:48:48.123Z,0.70
2018-12-10T22:51:21.726Z,0.70
2018-12-10T22:53:56.605Z,0.60
2018-12-10T22:56:30.746Z,0.60
2018-12-10T22:59:04.263Z,0.60
2018-12-10T23:01:37.183Z,0.60
2018-12-10T23:04:14.080Z,0.60
2018-12-10T23:06:45.619Z,0.50
2018-12-10T23:09:19.187Z,0.60
2018-12-10T23:11:52.728Z,0.60
2018-12-10T23:14:25.267Z,0.70
2018-12-10T23:16:57.739Z,0.60
2018-12-10T23:19:30.960Z,0.50
2018-12-10T23:22:03.336Z,0.50
2018-12-10T23:24:35.031Z,0.50
2018-12-10T23:27:09.033Z,0.40
2018-12-10T23:29:41.727Z,0.40
2018-12-10T23:32:14.918Z,0.40
2018-12-10T23:34:47.811Z,0.40
2018-12-10T23:37:19.260Z,0.40
2018-12-10T23:39:52.919Z,0.50
2018-12-10T23:42:28.691Z,0.50
2018-12-10T23:45:04.476Z,0.50
2018-12-10T23:47:34.715Z,0.50
2018-12-10T23:50:09.139Z,0.50
2018-12-10T23:52:43.983Z,0.50
2018-12-10T23:55:20.500Z,0.50
2018-12-10T23:57:59.425Z,0.60
